Time;durP1;ratioP1;P1;durP2;ratioP2;P2;SDS_P1;SDS_P2;PMS_P1;PMS_P2;Temp;Humidity;BMP_temperature;BMP_pressure;BME280_temperature;BME280_humidity;BME280_pressure;Samples;Min_cycle;Max_cycle;Signal;HPM_P1;HPM_P2
2022/02/15 00:02:57;;;;;;;36.20;19.70;;;;;;;1.13;69.64;99283.36;214202;1277;140510;-70
2022/02/15 00:08:01;;;;;;;27.40;14.60;;;;;;;1.07;69.85;99275.14;214166;1277;142397;-69
2022/02/15 00:13:07;;;;;;;36.70;19.70;;;;;;;1.03;70.09;99262.45;213459;1276;141156;-73
2022/02/15 00:18:12;;;;;;;34.30;21.60;;;;;;;1.00;70.15;99266.98;214435;1276;141651;-73
2022/02/15 00:23:17;;;;;;;35.20;20.20;;;;;;;1.00;70.08;99271.47;213579;1277;140305;-71
2022/02/15 00:28:23;;;;;;;32.30;19.40;;;;;;;1.00;70.25;99273.15;214329;1276;141718;-70
2022/02/15 00:33:26;;;;;;;35.50;22.10;;;;;;;0.99;70.10;99268.34;214502;1276;141083;-75
2022/02/15 00:38:30;;;;;;;31.80;22.40;;;;;;;0.99;70.25;99270.60;213384;1276;141349;-75
2022/02/15 00:43:34;;;;;;;36.60;20.80;;;;;;;1.00;70.42;99267.70;215276;1277;142487;-75
2022/02/15 00:48:38;;;;;;;38.30;22.20;;;;;;;0.98;70.44;99266.31;215694;1276;141483;-73
2022/02/15 00:53:42;;;;;;;42.00;21.10;;;;;;;0.99;70.31;99268.14;215031;1276;140079;-74
2022/02/15 00:58:46;;;;;;;33.50;21.30;;;;;;;1.00;70.64;99264.91;213866;1276;229021;-74
2022/02/15 01:03:51;;;;;;;43.20;21.30;;;;;;;1.00;70.62;99258.41;215151;1277;140547;-75
2022/02/15 01:08:55;;;;;;;33.10;21.90;;;;;;;1.02;70.49;99255.97;214449;1277;141433;-71
2022/02/15 01:13:59;;;;;;;43.70;25.70;;;;;;;1.01;71.03;99255.35;214632;1276;141170;-74
2022/02/15 01:19:04;;;;;;;42.20;22.80;;;;;;;1.00;70.59;99241.62;213821;1276;141128;-77
2022/02/15 01:24:09;;;;;;;37.60;24.50;;;;;;;0.96;70.58;99235.40;215077;1276;139983;-73
2022/02/15 01:29:13;;;;;;;42.90;24.20;;;;;;;0.95;70.53;99234.53;213005;1276;141355;-75
2022/02/15 01:34:21;;;;;;;43.50;25.50;;;;;;;0.92;70.86;99232.73;213058;1276;139971;-67
2022/02/15 01:39:26;;;;;;;39.50;21.40;;;;;;;0.92;71.20;99234.19;213371;1278;140785;-67
2022/02/15 01:44:32;;;;;;;39.90;24.30;;;;;;;0.90;71.13;99227.11;214277;1276;140934;-76
2022/02/15 01:49:37;;;;;;;35.90;24.00;;;;;;;0.89;70.99;99224.11;213772;1277;140406;-77
2022/02/15 01:54:42;;;;;;;42.00;22.20;;;;;;;0.88;71.09;99218.33;213679;1278;140254;-77
2022/02/15 01:59:46;;;;;;;43.20;24.00;;;;;;;0.85;71.02;99214.91;214194;1276;141209;-80
2022/02/15 02:10:12;;;;;;;40.70;24.70;;;;;;;0.81;71.36;99215.62;213556;1276;144067;-79
2022/02/15 02:15:19;;;;;;;40.70;22.70;;;;;;;0.79;71.33;99212.86;214472;1277;140754;-80
2022/02/15 02:20:24;;;;;;;42.60;24.00;;;;;;;0.80;71.42;99211.49;212875;1278;141637;-71
2022/02/15 02:25:29;;;;;;;36.70;23.70;;;;;;;0.85;71.52;99211.48;213391;1277;141572;-70
2022/02/15 02:30:32;;;;;;;33.60;24.20;;;;;;;0.88;71.65;99210.87;213013;1276;140327;-75
2022/02/15 02:35:36;;;;;;;39.40;22.50;;;;;;;0.92;71.60;99212.63;215440;1277;140158;-83
2022/02/15 02:40:41;;;;;;;37.60;22.40;;;;;;;0.97;71.51;99215.19;213473;1277;140089;-86
2022/02/15 02:45:45;;;;;;;39.60;24.40;;;;;;;1.01;71.71;99223.14;214309;1277;140575;-87
2022/02/15 02:50:49;;;;;;;45.90;25.30;;;;;;;1.06;71.53;99221.21;215548;1277;139931;-74
2022/02/15 02:55:55;;;;;;;38.30;25.90;;;;;;;1.13;71.70;99219.84;215522;1277;141219;-75
2022/02/15 03:00:59;;;;;;;39.00;24.30;;;;;;;1.18;71.52;99219.89;215113;1277;142144;-80
2022/02/15 03:06:07;;;;;;;47.00;22.60;;;;;;;1.18;71.51;99222.27;215628;1277;142012;-79
2022/02/15 03:11:11;;;;;;;45.70;25.00;;;;;;;1.15;71.29;99218.48;214373;1276;140012;-79
2022/02/15 03:16:16;;;;;;;42.90;24.70;;;;;;;1.11;71.51;99228.95;213144;1277;140783;-79
2022/02/15 03:21:20;;;;;;;43.10;24.90;;;;;;;1.06;71.26;99225.77;214233;1276;140125;-79
2022/02/15 03:26:25;;;;;;;35.60;22.00;;;;;;;0.97;71.47;99229.39;214636;1277;141103;-74
2022/02/15 03:31:30;;;;;;;44.20;23.80;;;;;;;0.90;71.37;99231.64;213343;1276;815271;-80
2022/02/15 03:36:35;;;;;;;45.90;24.90;;;;;;;0.83;71.56;99230.98;214138;1276;139876;-81
2022/02/15 03:47:04;;;;;;;44.70;23.40;;;;;;;0.71;71.83;99229.62;214540;1277;141262;-81
2022/02/15 03:52:08;;;;;;;35.30;21.10;;;;;;;0.57;71.47;99223.25;213253;1277;153593;-76
2022/02/15 03:57:13;;;;;;;45.80;24.60;;;;;;;0.46;71.60;99221.61;213034;1276;141423;-74
2022/02/15 04:02:17;;;;;;;40.60;21.20;;;;;;;0.40;71.79;99232.09;212883;1276;141989;-76
2022/02/15 04:07:22;;;;;;;45.90;27.00;;;;;;;0.33;71.94;99228.83;212789;1276;141097;-75
2022/02/15 04:12:27;;;;;;;29.30;21.40;;;;;;;0.31;72.26;99232.58;213378;1277;141973;-78
2022/02/15 04:17:34;;;;;;;48.00;20.30;;;;;;;0.31;72.59;99231.73;213869;1276;140093;-76
2022/02/15 04:22:39;;;;;;;41.30;22.70;;;;;;;0.30;72.36;99228.06;214950;1276;140233;-70
2022/02/15 04:27:43;;;;;;;43.90;25.10;;;;;;;0.29;72.41;99220.95;214570;1276;140247;-76
2022/02/15 04:32:47;;;;;;;43.40;23.20;;;;;;;0.30;72.60;99228.74;215156;1276;140296;-78
2022/02/15 04:37:53;;;;;;;50.40;26.50;;;;;;;0.31;72.66;99238.71;213604;1276;141628;-81
2022/02/15 04:42:57;;;;;;;42.40;24.00;;;;;;;0.36;72.84;99245.15;215314;1277;141585;-78
2022/02/15 04:48:03;;;;;;;41.50;22.70;;;;;;;0.42;73.17;99242.52;215589;1277;140725;-81
2022/02/15 04:53:07;;;;;;;44.80;24.60;;;;;;;0.48;72.98;99241.52;213801;1277;140896;-79
2022/02/15 04:58:12;;;;;;;47.70;25.60;;;;;;;0.51;73.16;99237.77;215572;1277;140543;-75
2022/02/15 05:03:16;;;;;;;35.50;18.90;;;;;;;0.54;72.96;99234.10;215661;1277;140710;-73
2022/02/15 05:08:20;;;;;;;44.20;24.10;;;;;;;0.53;73.01;99229.65;213263;1278;141465;-76
2022/02/15 05:13:24;;;;;;;45.60;23.40;;;;;;;0.51;72.93;99233.38;215761;1277;140537;-77
2022/02/15 05:18:28;;;;;;;40.80;23.90;;;;;;;0.50;73.33;99229.82;215128;1277;141212;-77
2022/02/15 05:23:33;;;;;;;47.00;25.80;;;;;;;0.51;73.19;99229.90;214177;1277;140974;-78
2022/02/15 05:28:39;;;;;;;39.10;26.60;;;;;;;0.50;73.22;99229.13;214150;1277;141975;-75
2022/02/15 05:33:43;;;;;;;47.80;27.70;;;;;;;0.50;73.13;99234.54;213888;1277;141476;-78
2022/02/15 05:38:48;;;;;;;50.70;27.30;;;;;;;0.52;73.21;99234.72;213965;1277;150692;-70
2022/02/15 05:43:52;;;;;;;47.30;26.00;;;;;;;0.52;73.42;99243.44;213913;1277;141633;-69
2022/02/15 05:48:57;;;;;;;50.70;24.40;;;;;;;0.50;73.43;99245.22;213648;1277;162685;-71
2022/02/15 05:54:02;;;;;;;44.40;26.20;;;;;;;0.47;73.45;99238.80;214584;1277;141102;-73
2022/02/15 05:59:08;;;;;;;45.30;24.70;;;;;;;0.44;73.37;99243.76;214490;1277;140479;-70
2022/02/15 06:04:12;;;;;;;42.90;25.50;;;;;;;0.39;73.66;99250.23;214592;1276;140166;-70
2022/02/15 06:09:16;;;;;;;42.30;25.10;;;;;;;0.40;73.72;99258.02;213668;1277;141173;-74
2022/02/15 06:14:21;;;;;;;41.00;22.00;;;;;;;0.41;73.69;99261.52;213442;1277;141782;-68
2022/02/15 06:19:26;;;;;;;46.00;26.20;;;;;;;0.46;73.94;99260.02;213488;1277;140795;-69
2022/02/15 06:24:31;;;;;;;51.70;28.70;;;;;;;0.53;74.03;99263.95;213418;1277;140992;-69
2022/02/15 06:29:39;;;;;;;53.60;26.90;;;;;;;0.62;74.28;99260.95;213232;1277;140122;-74
2022/02/15 06:34:45;;;;;;;45.90;27.10;;;;;;;0.71;74.24;99258.60;214238;1277;140616;-81
2022/02/15 06:39:50;;;;;;;44.00;24.00;;;;;;;0.85;74.16;99269.88;213800;1277;140552;-75
2022/02/15 06:44:55;;;;;;;49.30;28.30;;;;;;;0.97;74.15;99282.56;213610;1277;143540;-74
2022/02/15 06:50:00;;;;;;;47.20;26.20;;;;;;;1.06;74.30;99287.68;213905;1277;142525;-69
2022/02/15 06:55:05;;;;;;;46.00;23.20;;;;;;;1.14;74.48;99285.71;213729;1277;141729;-76
2022/02/15 07:00:11;;;;;;;45.40;25.60;;;;;;;1.22;74.16;99290.58;215900;1276;141846;-82
2022/02/15 07:05:15;;;;;;;55.10;28.10;;;;;;;1.40;74.15;99293.84;215835;1277;140130;-74
2022/02/15 07:10:20;;;;;;;45.70;27.10;;;;;;;1.74;73.83;99289.34;214514;1277;140889;-78
2022/02/15 07:15:25;;;;;;;48.70;26.90;;;;;;;2.22;74.03;99292.89;214819;1277;140882;-78
2022/02/15 07:20:29;;;;;;;50.20;26.80;;;;;;;2.53;73.38;99287.63;215587;1277;139604;-82
2022/02/15 07:25:35;;;;;;;42.10;23.10;;;;;;;3.46;73.48;99292.27;214217;1277;139779;-77
2022/02/15 07:30:39;;;;;;;41.30;25.70;;;;;;;4.73;72.98;99291.52;214560;1277;140206;-83
2022/02/15 07:35:43;;;;;;;39.50;23.30;;;;;;;5.05;71.43;99286.60;213439;1276;140230;-82
2022/02/15 07:40:48;;;;;;;53.30;26.80;;;;;;;4.66;70.20;99295.14;214895;1277;142983;-75
2022/02/15 07:45:53;;;;;;;43.50;24.80;;;;;;;4.32;70.37;99306.20;214135;1277;139892;-79
2022/02/15 07:50:58;;;;;;;40.60;23.90;;;;;;;4.05;70.39;99302.08;213902;1277;140328;-77
2022/02/15 07:56:02;;;;;;;48.90;28.90;;;;;;;3.89;70.83;99305.45;212694;1277;141517;-71
2022/02/15 08:01:07;;;;;;;44.40;25.80;;;;;;;3.84;71.00;99310.52;212545;1277;140390;-73
2022/02/15 08:06:11;;;;;;;52.00;27.90;;;;;;;3.92;71.12;99309.14;213448;1276;139930;-71
2022/02/15 08:11:16;;;;;;;48.90;25.40;;;;;;;4.24;71.19;99312.91;212476;1277;162831;-69
2022/02/15 08:16:21;;;;;;;43.30;28.20;;;;;;;4.44;71.07;99321.45;214154;1276;140735;-71
2022/02/15 08:21:26;;;;;;;44.80;23.90;;;;;;;4.56;70.96;99322.91;214078;1276;140301;-69
2022/02/15 08:26:44;;;;;;;42.60;23.70;;;;;;;4.58;70.66;99329.23;213154;1276;140046;-68
2022/02/15 08:31:53;;;;;;;39.30;23.40;;;;;;;4.58;70.52;99329.27;214089;1277;140665;-74
2022/02/15 08:36:58;;;;;;;43.50;26.70;;;;;;;4.57;70.68;99335.79;213929;1276;141681;-71
2022/02/15 08:42:04;;;;;;;41.00;25.20;;;;;;;4.57;70.66;99340.05;213986;1277;140683;-70
2022/02/15 08:47:11;;;;;;;40.60;26.00;;;;;;;4.58;70.62;99343.01;214662;1277;140231;-71
2022/02/15 08:52:16;;;;;;;36.30;24.60;;;;;;;4.57;70.57;99343.08;213463;1276;139879;-70
2022/02/15 08:57:22;;;;;;;42.00;26.80;;;;;;;4.53;70.66;99345.94;213828;1277;140862;-71
2022/02/15 09:02:27;;;;;;;37.40;23.60;;;;;;;4.52;70.67;99350.98;214545;1277;140259;-75
2022/02/15 09:07:31;;;;;;;44.30;24.90;;;;;;;4.56;70.61;99354.74;215542;1277;140506;-79
2022/02/15 09:12:35;;;;;;;42.90;25.80;;;;;;;4.58;70.41;99360.63;215362;1277;139882;-75
2022/02/15 09:17:41;;;;;;;38.70;23.90;;;;;;;4.62;70.62;99359.10;215328;1276;141700;-81
2022/02/15 09:22:45;;;;;;;35.30;22.50;;;;;;;4.74;70.77;99361.81;215132;1277;141585;-80
2022/02/15 09:27:49;;;;;;;45.30;23.50;;;;;;;4.86;70.53;99356.80;215127;1276;140590;-77
2022/02/15 09:32:53;;;;;;;40.60;22.70;;;;;;;5.00;70.94;99357.70;215285;1276;140498;-81
2022/02/15 09:37:57;;;;;;;38.60;24.30;;;;;;;5.17;70.57;99362.06;214134;1276;141318;-74
2022/02/15 09:43:01;;;;;;;33.50;22.30;;;;;;;5.35;70.61;99369.77;214200;1277;140907;-75
2022/02/15 09:48:09;;;;;;;34.40;21.10;;;;;;;5.51;70.34;99370.99;215210;1277;140508;-77
2022/02/15 09:53:14;;;;;;;;;;;;;;;5.63;70.30;99371.95;214898;1276;140847;-79
2022/02/15 09:58:18;;;;;;;36.60;23.50;;;;;;;5.62;70.27;99374.92;214679;1277;126056;-75
2022/02/15 10:03:23;;;;;;;38.70;24.40;;;;;;;5.60;69.91;99375.46;215098;1276;141235;-77
2022/02/15 10:08:31;;;;;;;36.60;24.10;;;;;;;5.63;70.18;99375.33;214540;1276;141371;-78
2022/02/15 10:13:42;;;;;;;33.70;24.30;;;;;;;5.66;70.36;99378.73;214285;1276;139887;-70
2022/02/15 10:18:54;;;;;;;38.30;24.50;;;;;;;5.74;70.05;99375.48;214128;1277;140686;-73
2022/02/15 10:23:58;;;;;;;44.90;23.70;;;;;;;5.82;70.15;99372.61;213575;1276;160993;-73
2022/02/15 10:29:02;;;;;;;41.60;24.70;;;;;;;5.95;70.11;99369.96;213910;1276;143795;-74
2022/02/15 10:34:28;;;;;;;39.80;23.90;;;;;;;6.06;70.22;99377.64;213886;1277;141894;-76
2022/02/15 10:39:36;;;;;;;41.10;24.20;;;;;;;6.11;70.15;99380.98;213122;1276;141096;-73
2022/02/15 10:45:10;;;;;;;36.50;23.80;;;;;;;6.21;69.68;99384.36;213283;1277;140710;-76
2022/02/15 10:50:15;;;;;;;36.90;24.70;;;;;;;6.32;69.81;99392.67;214189;1277;141873;-81
2022/02/15 10:55:19;;;;;;;34.10;20.50;;;;;;;6.46;69.80;99392.31;214097;1276;140418;-79
2022/02/15 11:00:24;;;;;;;37.70;21.40;;;;;;;6.62;69.36;99393.89;214885;1276;140618;-72
2022/02/15 11:05:29;;;;;;;38.20;21.40;;;;;;;6.82;69.36;99389.41;214539;1276;142327;-79
2022/02/15 11:10:45;;;;;;;33.10;20.90;;;;;;;6.87;68.82;99387.05;214606;1275;141300;-74
2022/02/15 11:15:52;;;;;;;28.50;18.60;;;;;;;6.90;68.83;99394.23;215569;1276;140034;-72
2022/02/15 11:20:59;;;;;;;25.60;16.90;;;;;;;6.94;68.71;99393.26;215345;1277;139465;-72
2022/02/15 11:26:05;;;;;;;;;;;;;;;7.06;68.76;99387.30;213598;1277;141338;-70
2022/02/15 11:31:11;;;;;;;30.00;17.90;;;;;;;7.19;68.56;99393.23;215870;1277;126839;-74
2022/02/15 11:36:25;;;;;;;27.80;17.30;;;;;;;7.38;68.62;99382.16;215634;1276;141006;-74
2022/02/15 11:41:44;;;;;;;20.10;14.50;;;;;;;7.67;67.95;99385.46;215230;1276;140125;-73
2022/02/15 11:47:15;;;;;;;28.80;17.10;;;;;;;8.02;68.02;99383.35;213728;1275;142422;-72
2022/02/15 11:52:22;;;;;;;22.20;13.40;;;;;;;8.20;67.71;99380.36;215215;1276;140884;-73
2022/02/15 11:57:30;;;;;;;24.40;16.20;;;;;;;8.41;67.31;99378.51;213557;1277;141563;-76
2022/02/15 12:02:37;;;;;;;21.80;15.80;;;;;;;8.50;67.04;99385.73;213931;1277;141483;-73
2022/02/15 12:07:43;;;;;;;26.60;17.50;;;;;;;8.42;66.70;99388.78;214369;1276;142510;-73
2022/02/15 12:12:47;;;;;;;21.60;15.70;;;;;;;8.36;66.86;99394.13;213756;1277;163307;-72
2022/02/15 12:17:55;;;;;;;24.80;17.10;;;;;;;8.35;66.60;99393.50;212929;1276;140337;-73
2022/02/15 12:23:02;;;;;;;27.00;16.00;;;;;;;8.38;66.60;99392.56;214811;1277;139588;-73
2022/02/15 12:28:08;;;;;;;26.40;16.90;;;;;;;8.52;66.89;99389.23;213417;1277;139504;-72
2022/02/15 12:33:13;;;;;;;27.00;17.60;;;;;;;8.97;66.96;99389.21;214322;1276;140180;-71
2022/02/15 12:38:36;;;;;;;23.70;15.10;;;;;;;9.33;66.42;99385.02;214461;1276;141768;-72
2022/02/15 12:43:41;;;;;;;22.30;16.60;;;;;;;9.46;65.78;99390.09;214073;1276;141014;-73
2022/02/15 12:48:45;;;;;;;22.00;15.10;;;;;;;9.32;65.42;99383.88;214675;1276;142397;-74
2022/02/15 12:53:51;;;;;;;15.70;8.70;;;;;;;9.20;65.36;99381.66;213568;1276;141018;-72
2022/02/15 12:58:57;;;;;;;17.40;12.80;;;;;;;9.05;65.31;99391.29;214425;1276;142195;-74
2022/02/15 13:04:06;;;;;;;17.30;10.00;;;;;;;8.94;65.69;99393.19;213902;1276;141759;-72
2022/02/15 13:09:11;;;;;;;17.60;12.10;;;;;;;8.79;65.27;99394.39;215178;1276;141571;-77
2022/02/15 13:14:28;;;;;;;26.90;15.70;;;;;;;8.80;65.48;99396.16;215346;1276;142261;-78
2022/02/15 13:19:37;;;;;;;22.30;16.10;;;;;;;8.72;65.53;99404.55;215265;1276;142490;-77
2022/02/15 13:24:59;;;;;;;24.60;15.10;;;;;;;8.65;65.91;99407.19;215471;1276;141702;-75
2022/02/15 13:30:25;;;;;;;25.50;16.70;;;;;;;8.62;66.21;99412.52;215308;1276;140881;-76
2022/02/15 13:35:33;;;;;;;33.10;17.40;;;;;;;8.65;65.89;99412.45;215285;1277;139449;-75
2022/02/15 13:40:39;;;;;;;20.70;13.40;;;;;;;8.86;65.93;99415.63;214945;1276;140236;-72
2022/02/15 13:45:44;;;;;;;27.00;17.70;;;;;;;8.99;65.96;99413.55;213312;1276;140504;-73
2022/02/15 13:50:50;;;;;;;25.90;15.90;;;;;;;8.94;65.86;99413.65;215015;1276;140908;-73
2022/02/15 13:55:55;;;;;;;25.60;15.80;;;;;;;8.77;65.84;99418.86;213311;1276;141303;-72
2022/02/15 14:01:06;;;;;;;19.30;12.70;;;;;;;8.66;65.85;99414.33;215471;1276;141151;-73
2022/02/15 14:06:15;;;;;;;20.50;14.30;;;;;;;8.59;66.23;99419.93;215552;1276;139552;-73
2022/02/15 14:11:23;;;;;;;18.20;13.00;;;;;;;8.57;66.53;99421.44;212955;1276;139487;-70
2022/02/15 14:16:28;;;;;;;17.30;13.20;;;;;;;8.52;66.41;99423.45;213602;1276;140763;-69
2022/02/15 14:21:37;;;;;;;23.60;15.30;;;;;;;8.44;66.79;99425.65;213607;1276;141156;-72
2022/02/15 14:26:43;;;;;;;24.90;15.30;;;;;;;8.37;66.98;99425.95;214069;1276;140184;-71
2022/02/15 14:31:49;;;;;;;26.10;17.00;;;;;;;8.31;66.84;99422.05;213688;1276;142206;-73
2022/02/15 14:36:54;;;;;;;27.80;17.20;;;;;;;8.24;66.93;99421.31;214048;1276;140614;-74
2022/02/15 14:42:00;;;;;;;25.90;18.00;;;;;;;8.18;67.11;99425.23;213287;1276;141200;-76
2022/02/15 14:47:05;;;;;;;30.10;19.50;;;;;;;8.11;67.40;99426.69;213747;1276;141090;-75
2022/02/15 14:52:11;;;;;;;31.10;18.40;;;;;;;8.00;67.27;99428.14;214380;1278;140920;-75
2022/02/15 14:57:17;;;;;;;31.20;19.10;;;;;;;7.93;67.30;99420.25;213735;1276;140913;-69
2022/02/15 15:02:22;;;;;;;32.50;18.30;;;;;;;7.92;67.54;99435.94;214545;1276;140426;-72
2022/02/15 15:07:28;;;;;;;32.40;18.50;;;;;;;7.91;67.76;99436.57;215531;1277;140601;-73
2022/02/15 15:12:33;;;;;;;34.20;24.70;;;;;;;7.87;67.56;99439.64;215671;1276;140814;-70
2022/02/15 15:17:38;;;;;;;41.30;29.60;;;;;;;7.81;67.55;99445.79;215473;1277;143392;-71
2022/02/15 15:22:46;;;;;;;36.10;20.70;;;;;;;7.77;67.48;99449.88;214737;1276;141678;-73
2022/02/15 15:27:50;;;;;;;28.30;17.60;;;;;;;7.72;67.81;99455.04;214285;1276;143511;-70
2022/02/15 15:32:55;;;;;;;27.00;19.40;;;;;;;7.68;68.00;99457.27;214277;1276;1128330;-76
2022/02/15 15:38:00;;;;;;;29.60;19.30;;;;;;;7.70;67.83;99458.81;215553;1276;142240;-76
2022/02/15 15:43:05;;;;;;;40.10;19.30;;;;;;;7.67;68.12;99462.08;214328;1276;143093;-78
2022/02/15 15:48:11;;;;;;;26.40;17.40;;;;;;;7.60;67.95;99469.84;214852;1276;142298;-75
2022/02/15 15:53:15;;;;;;;32.80;21.40;;;;;;;7.55;68.46;99475.70;214620;1276;142501;-80
2022/02/15 15:58:19;;;;;;;31.90;19.70;;;;;;;7.47;68.30;99487.60;214253;1276;140903;-76
2022/02/15 16:03:23;;;;;;;27.70;18.40;;;;;;;7.35;68.32;99485.74;213656;1276;139867;-73
2022/02/15 16:08:29;;;;;;;32.90;19.80;;;;;;;7.23;68.39;99491.33;215231;1277;140851;-70
2022/02/15 16:13:34;;;;;;;33.30;20.80;;;;;;;7.11;68.36;99502.56;213508;1276;140242;-76
2022/02/15 16:18:42;;;;;;;31.20;19.00;;;;;;;6.98;68.44;99503.88;213869;1276;139992;-74
2022/02/15 16:23:49;;;;;;;29.80;20.30;;;;;;;6.86;68.35;99507.35;215587;1276;141867;-73
2022/02/15 16:28:57;;;;;;;33.40;21.50;;;;;;;6.74;68.86;99513.84;214048;1276;141158;-73
2022/02/15 16:34:04;;;;;;;24.60;17.80;;;;;;;6.63;68.94;99514.17;214621;1276;141780;-73
2022/02/15 16:39:08;;;;;;;34.00;19.70;;;;;;;6.51;69.22;99514.39;214296;1275;141100;-73
2022/02/15 16:44:17;;;;;;;36.80;20.20;;;;;;;6.39;69.13;99517.04;213999;1276;140800;-78
2022/02/15 16:49:22;;;;;;;33.40;20.00;;;;;;;6.26;69.59;99517.61;214440;1276;141982;-81
2022/02/15 16:54:26;;;;;;;31.90;20.30;;;;;;;6.08;69.22;99516.30;213469;1276;141341;-73
2022/02/15 16:59:30;;;;;;;30.20;20.90;;;;;;;5.91;69.61;99521.29;214909;1276;141389;-76
2022/02/15 17:04:33;;;;;;;35.70;20.20;;;;;;;5.74;69.82;99523.38;214316;1276;142274;-81
2022/02/15 17:09:39;;;;;;;34.60;20.20;;;;;;;5.62;69.51;99521.86;214773;1276;143568;-70
2022/02/15 17:14:43;;;;;;;33.50;19.70;;;;;;;5.52;69.85;99516.98;215583;1276;164144;-72
2022/02/15 17:19:48;;;;;;;29.70;19.60;;;;;;;5.36;70.13;99511.47;215646;1275;162338;-71
2022/02/15 17:24:53;;;;;;;38.30;22.10;;;;;;;5.17;69.66;99513.09;215852;1276;142207;-72
2022/02/15 17:30:00;;;;;;;33.30;21.90;;;;;;;4.98;69.89;99521.91;215828;1276;140622;-69
2022/02/15 17:35:06;;;;;;;29.20;18.80;;;;;;;4.80;70.14;99526.31;214895;1276;141208;-79
2022/02/15 17:40:11;;;;;;;31.00;21.40;;;;;;;4.62;70.03;99536.02;215158;1276;140897;-78
2022/02/15 17:45:18;;;;;;;31.60;20.10;;;;;;;4.40;69.99;99539.23;215168;1276;140693;-71
2022/02/15 17:50:22;;;;;;;31.90;18.50;;;;;;;4.22;70.11;99540.27;214873;1276;141182;-70
2022/02/15 17:55:27;;;;;;;30.50;20.70;;;;;;;4.01;70.23;99538.84;215482;1276;142540;-74
2022/02/15 18:00:41;;;;;;;32.10;20.70;;;;;;;3.79;70.34;99544.70;214460;1276;140810;-75
2022/02/15 18:05:45;;;;;;;39.10;26.20;;;;;;;3.50;70.33;99548.27;214271;1276;140581;-78
2022/02/15 18:10:52;;;;;;;42.70;24.60;;;;;;;3.31;70.90;99556.10;214448;1276;140798;-77
2022/02/15 18:15:57;;;;;;;45.20;24.50;;;;;;;3.13;70.92;99556.44;214505;1276;140026;-77
2022/02/15 18:21:01;;;;;;;38.20;25.00;;;;;;;2.82;70.94;99560.23;213580;1276;141969;-79
2022/02/15 18:26:09;;;;;;;38.80;25.00;;;;;;;2.55;71.10;99560.14;213453;1276;142008;-73
2022/02/15 18:31:14;;;;;;;42.70;25.80;;;;;;;2.36;72.00;99570.31;214000;1276;142303;-80
2022/02/15 18:36:17;;;;;;;38.70;22.00;;;;;;;2.33;72.42;99569.27;214243;1276;141379;-81
2022/02/15 18:41:22;;;;;;;36.60;23.30;;;;;;;2.35;72.96;99569.04;214065;1276;141325;-75
2022/02/15 18:46:26;;;;;;;41.10;23.90;;;;;;;2.38;73.28;99568.95;214103;1276;162947;-71
2022/02/15 18:51:30;;;;;;;46.10;26.30;;;;;;;2.41;73.48;99572.60;212972;1276;141125;-75
2022/02/15 18:56:35;;;;;;;35.40;22.20;;;;;;;2.43;73.73;99577.96;215298;1276;140546;-79
2022/02/15 19:01:40;;;;;;;36.80;26.00;;;;;;;2.45;73.67;99575.53;214744;1276;141539;-75
2022/02/15 19:06:46;;;;;;;49.10;28.70;;;;;;;2.44;73.92;99580.39;214654;1276;140034;-77
2022/02/15 19:11:51;;;;;;;48.60;26.20;;;;;;;2.47;74.03;99584.13;214584;1276;143603;-80
2022/02/15 19:16:58;;;;;;;54.40;33.60;;;;;;;2.42;74.16;99567.73;214712;1276;140970;-80
2022/02/15 19:22:03;;;;;;;57.60;36.80;;;;;;;2.41;74.55;99567.66;214873;1276;141596;-81
2022/02/15 19:27:08;;;;;;;80.10;39.70;;;;;;;2.46;74.83;99571.25;215705;1276;143128;-76
2022/02/15 19:32:13;;;;;;;95.30;44.90;;;;;;;2.53;74.77;99577.80;215714;1276;141369;-79
2022/02/15 19:37:17;;;;;;;53.10;29.50;;;;;;;2.60;75.30;99585.69;215804;1276;140626;-76
2022/02/15 19:42:21;;;;;;;57.70;32.10;;;;;;;2.58;75.38;99578.22;215604;1276;141195;-75
2022/02/15 19:47:26;;;;;;;64.90;36.00;;;;;;;2.54;75.68;99575.67;214408;1276;140836;-71
2022/02/15 19:52:31;;;;;;;67.70;35.90;;;;;;;2.60;76.13;99571.68;215018;1276;140680;-79
2022/02/15 19:57:36;;;;;;;54.60;32.40;;;;;;;2.67;76.16;99567.92;213864;1277;140493;-76
2022/02/15 20:02:42;;;;;;;74.30;36.20;;;;;;;2.72;76.27;99564.93;214620;1276;140073;-77
2022/02/15 20:07:47;;;;;;;56.40;31.40;;;;;;;2.72;76.30;99564.24;215052;1276;140789;-75
2022/02/15 20:12:52;;;;;;;53.40;34.30;;;;;;;2.72;76.52;99563.44;214032;1277;140349;-78
2022/02/15 20:17:57;;;;;;;61.60;33.40;;;;;;;2.72;76.29;99563.84;214120;1277;140801;-75
2022/02/15 20:23:01;;;;;;;71.90;41.10;;;;;;;2.69;76.22;99567.13;214409;1276;140223;-68
2022/02/15 20:28:07;;;;;;;98.20;45.20;;;;;;;2.71;76.66;99564.15;212881;1277;140824;-81
2022/02/15 20:33:14;;;;;;;;;;;;;;;2.75;76.83;99567.50;213440;1276;140764;-79
2022/02/15 20:38:26;;;;;;;60.40;36.00;;;;;;;2.77;76.97;99568.23;215049;1277;126390;-79
2022/02/15 20:43:30;;;;;;;57.60;34.00;;;;;;;2.84;77.36;99566.08;213920;1277;140180;-81
2022/02/15 20:48:35;;;;;;;53.30;30.60;;;;;;;2.91;77.48;99561.42;214427;1276;139985;-73
2022/02/15 20:53:40;;;;;;;45.30;26.50;;;;;;;3.00;77.65;99557.73;214117;1277;140802;-80
2022/02/15 20:58:46;;;;;;;53.20;29.50;;;;;;;3.08;77.95;99557.45;213844;1276;140948;-80
2022/02/15 21:03:51;;;;;;;55.20;30.40;;;;;;;3.14;77.97;99559.45;214184;1277;224205;-80
2022/02/15 21:08:55;;;;;;;47.10;27.70;;;;;;;3.21;78.11;99555.81;214844;1276;144951;-79
2022/02/15 21:14:01;;;;;;;47.00;27.30;;;;;;;3.28;77.89;99547.12;214475;1277;141746;-78
2022/02/15 21:19:05;;;;;;;49.00;28.50;;;;;;;3.34;78.14;99549.27;215841;1276;140530;-76
2022/02/15 21:24:09;;;;;;;47.70;30.70;;;;;;;3.43;78.23;99546.35;214801;1277;142479;-76
2022/02/15 21:29:14;;;;;;;46.30;28.90;;;;;;;3.55;77.95;99543.03;215435;1276;141660;-75
2022/02/15 21:34:19;;;;;;;53.20;30.60;;;;;;;3.67;78.13;99543.82;215629;1276;141231;-75
2022/02/15 21:39:24;;;;;;;48.20;26.70;;;;;;;3.78;78.11;99546.44;215706;1277;140606;-74
2022/02/15 21:44:29;;;;;;;54.90;27.20;;;;;;;3.87;78.04;99540.23;214453;1276;141235;-79
2022/02/15 21:49:34;;;;;;;43.80;26.60;;;;;;;3.98;78.19;99541.77;215362;1277;140218;-78
2022/02/15 21:54:40;;;;;;;39.90;26.50;;;;;;;4.09;78.21;99536.14;215060;1277;139982;-78
2022/02/15 21:59:46;;;;;;;39.70;25.70;;;;;;;4.16;78.07;99538.23;215406;1276;141188;-77
2022/02/15 22:04:51;;;;;;;45.60;25.80;;;;;;;4.20;77.97;99539.39;214891;1276;140340;-70
2022/02/15 22:10:00;;;;;;;41.60;24.10;;;;;;;4.23;77.95;99533.64;214840;1276;140934;-81
2022/02/15 22:15:05;;;;;;;44.00;24.70;;;;;;;4.21;77.54;99530.80;214680;1277;140467;-75
2022/02/15 22:20:15;;;;;;;43.20;24.90;;;;;;;4.16;77.57;99526.59;214948;1276;140308;-77
2022/02/15 22:25:23;;;;;;;39.60;25.10;;;;;;;4.17;77.78;99525.95;214823;1276;142376;-77
2022/02/15 22:30:27;;;;;;;38.60;23.20;;;;;;;4.21;77.81;99526.00;213512;1277;141323;-78
2022/02/15 22:35:31;;;;;;;37.40;24.90;;;;;;;4.17;77.66;99522.42;214054;1276;141469;-69
2022/02/15 22:40:38;;;;;;;44.80;24.30;;;;;;;4.16;77.71;99516.64;213065;1276;141981;-76
2022/02/15 22:45:47;;;;;;;39.60;23.50;;;;;;;4.17;77.85;99522.95;213927;1276;141449;-78
2022/02/15 22:50:52;;;;;;;41.50;25.10;;;;;;;4.15;77.55;99525.70;214060;1276;141159;-76
2022/02/15 22:55:57;;;;;;;45.20;24.60;;;;;;;4.13;77.73;99526.79;214567;1276;140747;-84
2022/02/15 23:01:02;;;;;;;45.10;25.40;;;;;;;4.13;77.71;99522.27;215037;1276;142026;-84
2022/02/15 23:22:16;;;;;;;39.90;25.20;;;;;;;4.10;77.58;99510.20;214651;1276;141007;-77
2022/02/15 23:27:21;;;;;;;39.90;23.70;;;;;;;4.05;77.47;99498.80;213323;1274;141745;-81
2022/02/15 23:32:26;;;;;;;43.10;25.10;;;;;;;4.03;77.56;99491.27;214010;1276;141877;-70
2022/02/15 23:37:31;;;;;;;38.80;22.30;;;;;;;4.00;77.57;99492.52;214899;1276;140294;-69